sensor_id;sensor_type;location;lat;lon;timestamp;temperature;humidity
21282;DHT22;10800;53.096;18.328;2023-06-14T00:03:01;14.90;99.90
21282;DHT22;10800;53.096;18.328;2023-06-14T00:08:11;14.90;99.90
21282;DHT22;10800;53.096;18.328;2023-06-14T00:13:17;15.00;99.90
21282;DHT22;10800;53.096;18.328;2023-06-14T00:18:23;15.00;99.90
21282;DHT22;10800;53.096;18.328;2023-06-14T00:23:29;15.00;99.90
21282;DHT22;10800;53.096;18.328;2023-06-14T00:28:35;14.90;99.90
21282;DHT22;10800;53.096;18.328;2023-06-14T00:33:40;14.90;99.90
21282;DHT22;10800;53.096;18.328;2023-06-14T00:38:46;14.80;99.90
21282;DHT22;10800;53.096;18.328;2023-06-14T00:43:51;14.80;99.90
21282;DHT22;10800;53.096;18.328;2023-06-14T00:48:59;14.80;99.90
21282;DHT22;10800;53.096;18.328;2023-06-14T00:54:08;14.70;99.90
21282;DHT22;10800;53.096;18.328;2023-06-14T00:59:16;14.70;99.90
21282;DHT22;10800;53.096;18.328;2023-06-14T01:04:22;14.70;99.90
21282;DHT22;10800;53.096;18.328;2023-06-14T01:09:38;14.70;99.90
21282;DHT22;10800;53.096;18.328;2023-06-14T01:14:45;14.60;99.90
21282;DHT22;10800;53.096;18.328;2023-06-14T01:19:52;14.60;99.90
21282;DHT22;10800;53.096;18.328;2023-06-14T01:25:00;14.60;99.90
21282;DHT22;10800;53.096;18.328;2023-06-14T01:30:07;14.60;99.90
21282;DHT22;10800;53.096;18.328;2023-06-14T01:35:14;14.60;99.90
21282;DHT22;10800;53.096;18.328;2023-06-14T01:40:21;14.50;99.90
21282;DHT22;10800;53.096;18.328;2023-06-14T01:45:27;14.50;99.90
21282;DHT22;10800;53.096;18.328;2023-06-14T01:50:34;14.50;99.90
21282;DHT22;10800;53.096;18.328;2023-06-14T01:55:39;14.40;99.90
21282;DHT22;10800;53.096;18.328;2023-06-14T02:00:46;14.40;99.90
21282;DHT22;10800;53.096;18.328;2023-06-14T02:05:52;14.30;99.90
21282;DHT22;10800;53.096;18.328;2023-06-14T02:11:00;14.20;99.90
21282;DHT22;10800;53.096;18.328;2023-06-14T02:16:05;14.20;99.90
21282;DHT22;10800;53.096;18.328;2023-06-14T02:21:12;14.20;99.90
21282;DHT22;10800;53.096;18.328;2023-06-14T02:26:17;14.20;99.90
21282;DHT22;10800;53.096;18.328;2023-06-14T02:31:23;14.20;99.90
21282;DHT22;10800;53.096;18.328;2023-06-14T02:36:29;14.20;99.90
21282;DHT22;10800;53.096;18.328;2023-06-14T02:41:35;14.20;99.90
21282;DHT22;10800;53.096;18.328;2023-06-14T02:46:41;14.20;99.90
21282;DHT22;10800;53.096;18.328;2023-06-14T02:51:48;14.20;99.90
21282;DHT22;10800;53.096;18.328;2023-06-14T02:56:53;14.20;99.90
21282;DHT22;10800;53.096;18.328;2023-06-14T03:01:59;14.10;99.90
21282;DHT22;10800;53.096;18.328;2023-06-14T03:07:05;14.10;99.90
21282;DHT22;10800;53.096;18.328;2023-06-14T03:12:16;14.00;99.90
21282;DHT22;10800;53.096;18.328;2023-06-14T03:17:22;14.10;99.90
21282;DHT22;10800;53.096;18.328;2023-06-14T03:22:29;14.10;99.90
21282;DHT22;10800;53.096;18.328;2023-06-14T03:27:35;14.00;99.90
21282;DHT22;10800;53.096;18.328;2023-06-14T03:32:41;13.90;99.90
21282;DHT22;10800;53.096;18.328;2023-06-14T03:37:47;13.90;99.90
21282;DHT22;10800;53.096;18.328;2023-06-14T03:42:54;14.00;99.90
21282;DHT22;10800;53.096;18.328;2023-06-14T03:48:00;14.10;99.90
21282;DHT22;10800;53.096;18.328;2023-06-14T03:53:06;14.20;99.90
21282;DHT22;10800;53.096;18.328;2023-06-14T03:58:12;14.20;99.90
21282;DHT22;10800;53.096;18.328;2023-06-14T04:03:17;14.10;99.90
21282;DHT22;10800;53.096;18.328;2023-06-14T04:08:24;14.10;99.90
21282;DHT22;10800;53.096;18.328;2023-06-14T04:13:30;14.10;99.90
21282;DHT22;10800;53.096;18.328;2023-06-14T04:18:38;13.90;99.90
21282;DHT22;10800;53.096;18.328;2023-06-14T04:23:44;13.90;99.90
21282;DHT22;10800;53.096;18.328;2023-06-14T04:28:50;14.00;99.90
21282;DHT22;10800;53.096;18.328;2023-06-14T04:33:57;14.10;99.90
21282;DHT22;10800;53.096;18.328;2023-06-14T04:39:05;14.20;99.90
21282;DHT22;10800;53.096;18.328;2023-06-14T04:44:11;14.50;99.90
21282;DHT22;10800;53.096;18.328;2023-06-14T04:49:17;14.80;99.90
21282;DHT22;10800;53.096;18.328;2023-06-14T04:54:23;14.90;99.90
21282;DHT22;10800;53.096;18.328;2023-06-14T04:59:32;15.00;99.90
21282;DHT22;10800;53.096;18.328;2023-06-14T05:04:39;15.20;99.90
21282;DHT22;10800;53.096;18.328;2023-06-14T05:09:45;15.30;99.90
21282;DHT22;10800;53.096;18.328;2023-06-14T05:14:50;15.40;99.90
21282;DHT22;10800;53.096;18.328;2023-06-14T05:19:56;15.40;99.90
21282;DHT22;10800;53.096;18.328;2023-06-14T05:25:02;15.60;99.90
21282;DHT22;10800;53.096;18.328;2023-06-14T05:30:08;15.50;99.90
21282;DHT22;10800;53.096;18.328;2023-06-14T05:35:14;15.60;99.90
21282;DHT22;10800;53.096;18.328;2023-06-14T05:40:20;15.90;99.90
21282;DHT22;10800;53.096;18.328;2023-06-14T05:45:26;16.00;99.90
21282;DHT22;10800;53.096;18.328;2023-06-14T05:50:31;16.30;99.90
21282;DHT22;10800;53.096;18.328;2023-06-14T05:55:37;16.50;99.90
21282;DHT22;10800;53.096;18.328;2023-06-14T06:00:44;16.50;99.90
21282;DHT22;10800;53.096;18.328;2023-06-14T06:05:51;16.70;99.90
21282;DHT22;10800;53.096;18.328;2023-06-14T06:10:56;16.80;99.90
21282;DHT22;10800;53.096;18.328;2023-06-14T06:16:03;17.00;99.90
21282;DHT22;10800;53.096;18.328;2023-06-14T06:21:09;17.30;99.90
21282;DHT22;10800;53.096;18.328;2023-06-14T06:26:15;17.30;99.90
21282;DHT22;10800;53.096;18.328;2023-06-14T06:31:20;17.30;99.90
21282;DHT22;10800;53.096;18.328;2023-06-14T06:36:27;17.20;99.90
21282;DHT22;10800;53.096;18.328;2023-06-14T06:41:33;17.20;99.90
21282;DHT22;10800;53.096;18.328;2023-06-14T06:46:40;17.40;99.90
21282;DHT22;10800;53.096;18.328;2023-06-14T06:52:01;17.30;99.90
21282;DHT22;10800;53.096;18.328;2023-06-14T06:57:06;17.20;99.90
21282;DHT22;10800;53.096;18.328;2023-06-14T07:02:12;17.20;99.90
21282;DHT22;10800;53.096;18.328;2023-06-14T07:07:17;17.10;99.90
21282;DHT22;10800;53.096;18.328;2023-06-14T07:12:23;17.10;99.90
21282;DHT22;10800;53.096;18.328;2023-06-14T07:17:29;17.20;99.90
21282;DHT22;10800;53.096;18.328;2023-06-14T07:22:34;17.50;99.90
21282;DHT22;10800;53.096;18.328;2023-06-14T07:27:44;17.80;99.90
21282;DHT22;10800;53.096;18.328;2023-06-14T07:32:50;17.90;99.90
21282;DHT22;10800;53.096;18.328;2023-06-14T07:37:56;18.10;99.90
21282;DHT22;10800;53.096;18.328;2023-06-14T07:43:01;18.30;99.90
21282;DHT22;10800;53.096;18.328;2023-06-14T07:48:07;18.50;99.90
21282;DHT22;10800;53.096;18.328;2023-06-14T07:53:12;18.90;99.90
21282;DHT22;10800;53.096;18.328;2023-06-14T07:58:18;19.60;99.90
21282;DHT22;10800;53.096;18.328;2023-06-14T08:03:24;19.80;99.90
21282;DHT22;10800;53.096;18.328;2023-06-14T08:08:30;19.70;99.90
21282;DHT22;10800;53.096;18.328;2023-06-14T08:13:35;19.90;99.90
21282;DHT22;10800;53.096;18.328;2023-06-14T08:18:41;20.10;99.90
21282;DHT22;10800;53.096;18.328;2023-06-14T08:23:47;20.30;99.90
21282;DHT22;10800;53.096;18.328;2023-06-14T08:28:53;20.50;99.10
21282;DHT22;10800;53.096;18.328;2023-06-14T08:34:00;21.00;97.10
21282;DHT22;10800;53.096;18.328;2023-06-14T08:39:09;21.20;95.00
21282;DHT22;10800;53.096;18.328;2023-06-14T08:44:16;21.00;92.10
21282;DHT22;10800;53.096;18.328;2023-06-14T08:49:22;20.50;92.30
21282;DHT22;10800;53.096;18.328;2023-06-14T08:54:29;20.40;92.70
21282;DHT22;10800;53.096;18.328;2023-06-14T08:59:49;20.30;92.80
21282;DHT22;10800;53.096;18.328;2023-06-14T09:04:50;20.30;92.30
21282;DHT22;10800;53.096;18.328;2023-06-14T09:10:09;20.50;93.80
21282;DHT22;10800;53.096;18.328;2023-06-14T09:15:15;20.80;92.40
21282;DHT22;10800;53.096;18.328;2023-06-14T09:20:21;21.30;91.60
21282;DHT22;10800;53.096;18.328;2023-06-14T09:25:28;21.70;92.10
21282;DHT22;10800;53.096;18.328;2023-06-14T09:30:37;22.10;91.10
21282;DHT22;10800;53.096;18.328;2023-06-14T09:35:50;22.70;89.70
21282;DHT22;10800;53.096;18.328;2023-06-14T09:40:56;23.00;85.40
21282;DHT22;10800;53.096;18.328;2023-06-14T09:46:05;23.10;82.50
21282;DHT22;10800;53.096;18.328;2023-06-14T09:51:13;23.80;79.80
21282;DHT22;10800;53.096;18.328;2023-06-14T09:56:27;23.60;76.70
21282;DHT22;10800;53.096;18.328;2023-06-14T10:01:41;23.40;75.80
21282;DHT22;10800;53.096;18.328;2023-06-14T10:06:45;23.50;77.10
21282;DHT22;10800;53.096;18.328;2023-06-14T10:11:51;23.10;76.50
21282;DHT22;10800;53.096;18.328;2023-06-14T10:17:05;23.40;77.80
21282;DHT22;10800;53.096;18.328;2023-06-14T10:22:13;23.90;77.30
21282;DHT22;10800;53.096;18.328;2023-06-14T10:27:19;24.00;74.60
21282;DHT22;10800;53.096;18.328;2023-06-14T10:32:26;24.50;75.90
21282;DHT22;10800;53.096;18.328;2023-06-14T10:37:33;24.80;72.90
21282;DHT22;10800;53.096;18.328;2023-06-14T10:42:41;25.00;72.20
21282;DHT22;10800;53.096;18.328;2023-06-14T10:47:49;24.90;72.80
21282;DHT22;10800;53.096;18.328;2023-06-14T10:52:56;24.30;73.90
21282;DHT22;10800;53.096;18.328;2023-06-14T10:58:02;24.30;74.00
21282;DHT22;10800;53.096;18.328;2023-06-14T11:13:48;24.30;68.50
21282;DHT22;10800;53.096;18.328;2023-06-14T11:18:54;24.40;64.40
21282;DHT22;10800;53.096;18.328;2023-06-14T11:24:00;23.90;63.10
21282;DHT22;10800;53.096;18.328;2023-06-14T11:29:16;24.00;63.70
21282;DHT22;10800;53.096;18.328;2023-06-14T11:34:22;24.50;60.80
21282;DHT22;10800;53.096;18.328;2023-06-14T11:39:29;24.80;61.70
21282;DHT22;10800;53.096;18.328;2023-06-14T11:44:35;24.70;62.70
21282;DHT22;10800;53.096;18.328;2023-06-14T11:49:43;24.60;63.20
21282;DHT22;10800;53.096;18.328;2023-06-14T11:54:50;23.80;62.10
21282;DHT22;10800;53.096;18.328;2023-06-14T11:59:56;23.10;62.30
21282;DHT22;10800;53.096;18.328;2023-06-14T12:05:06;22.20;59.70
21282;DHT22;10800;53.096;18.328;2023-06-14T12:10:15;21.70;63.80
21282;DHT22;10800;53.096;18.328;2023-06-14T12:15:27;21.30;66.30
21282;DHT22;10800;53.096;18.328;2023-06-14T12:20:33;21.10;68.60
21282;DHT22;10800;53.096;18.328;2023-06-14T12:25:42;21.10;68.00
21282;DHT22;10800;53.096;18.328;2023-06-14T12:30:49;21.30;68.40
21282;DHT22;10800;53.096;18.328;2023-06-14T12:35:57;21.40;68.60
21282;DHT22;10800;53.096;18.328;2023-06-14T12:41:02;21.60;68.90
21282;DHT22;10800;53.096;18.328;2023-06-14T12:46:08;21.60;67.80
21282;DHT22;10800;53.096;18.328;2023-06-14T12:51:16;21.60;69.60
21282;DHT22;10800;53.096;18.328;2023-06-14T12:56:21;21.60;69.00
21282;DHT22;10800;53.096;18.328;2023-06-14T13:01:28;21.40;70.00
21282;DHT22;10800;53.096;18.328;2023-06-14T13:06:34;21.60;69.70
21282;DHT22;10800;53.096;18.328;2023-06-14T13:11:39;21.50;69.20
21282;DHT22;10800;53.096;18.328;2023-06-14T13:16:44;21.70;68.30
21282;DHT22;10800;53.096;18.328;2023-06-14T13:21:50;21.80;66.70
21282;DHT22;10800;53.096;18.328;2023-06-14T13:26:58;21.60;64.80
21282;DHT22;10800;53.096;18.328;2023-06-14T13:32:04;21.60;65.30
21282;DHT22;10800;53.096;18.328;2023-06-14T13:41:28;21.60;64.40
21282;DHT22;10800;53.096;18.328;2023-06-14T13:46:38;21.30;61.40
21282;DHT22;10800;53.096;18.328;2023-06-14T13:51:47;21.00;60.90
21282;DHT22;10800;53.096;18.328;2023-06-14T13:56:53;21.00;63.30
21282;DHT22;10800;53.096;18.328;2023-06-14T14:01:59;21.00;64.80
21282;DHT22;10800;53.096;18.328;2023-06-14T14:07:06;20.70;64.60
21282;DHT22;10800;53.096;18.328;2023-06-14T14:12:12;20.40;66.80
21282;DHT22;10800;53.096;18.328;2023-06-14T14:17:18;20.10;68.50
21282;DHT22;10800;53.096;18.328;2023-06-14T14:22:24;20.20;72.20
21282;DHT22;10800;53.096;18.328;2023-06-14T14:27:34;20.00;76.60
21282;DHT22;10800;53.096;18.328;2023-06-14T14:32:40;19.60;80.20
21282;DHT22;10800;53.096;18.328;2023-06-14T14:37:46;19.20;81.80
21282;DHT22;10800;53.096;18.328;2023-06-14T14:42:51;19.30;85.50
21282;DHT22;10800;53.096;18.328;2023-06-14T14:47:57;19.10;87.80
21282;DHT22;10800;53.096;18.328;2023-06-14T14:53:03;18.80;92.10
21282;DHT22;10800;53.096;18.328;2023-06-14T14:58:08;18.80;95.80
21282;DHT22;10800;53.096;18.328;2023-06-14T15:03:14;18.80;98.60
21282;DHT22;10800;53.096;18.328;2023-06-14T15:08:20;18.80;99.90
21282;DHT22;10800;53.096;18.328;2023-06-14T15:13:26;18.80;99.90
21282;DHT22;10800;53.096;18.328;2023-06-14T15:18:34;18.80;99.90
21282;DHT22;10800;53.096;18.328;2023-06-14T15:23:39;18.80;99.90
21282;DHT22;10800;53.096;18.328;2023-06-14T15:28:50;18.50;99.90
21282;DHT22;10800;53.096;18.328;2023-06-14T15:33:56;18.20;99.90
21282;DHT22;10800;53.096;18.328;2023-06-14T15:39:02;18.20;99.90
21282;DHT22;10800;53.096;18.328;2023-06-14T15:44:08;18.30;99.90
21282;DHT22;10800;53.096;18.328;2023-06-14T15:49:14;18.30;99.90
21282;DHT22;10800;53.096;18.328;2023-06-14T15:54:19;18.50;99.90
21282;DHT22;10800;53.096;18.328;2023-06-14T15:59:29;18.50;99.90
21282;DHT22;10800;53.096;18.328;2023-06-14T16:04:34;18.70;99.90
21282;DHT22;10800;53.096;18.328;2023-06-14T16:09:39;18.80;99.90
21282;DHT22;10800;53.096;18.328;2023-06-14T16:14:45;18.80;99.90
21282;DHT22;10800;53.096;18.328;2023-06-14T16:19:50;18.80;99.90
21282;DHT22;10800;53.096;18.328;2023-06-14T16:24:56;18.80;99.90
21282;DHT22;10800;53.096;18.328;2023-06-14T16:30:01;18.60;99.90
21282;DHT22;10800;53.096;18.328;2023-06-14T16:35:13;18.30;99.90
21282;DHT22;10800;53.096;18.328;2023-06-14T16:40:19;18.20;99.90
21282;DHT22;10800;53.096;18.328;2023-06-14T16:45:25;18.00;99.90
21282;DHT22;10800;53.096;18.328;2023-06-14T16:50:30;17.90;99.90
21282;DHT22;10800;53.096;18.328;2023-06-14T16:55:39;17.70;99.90
21282;DHT22;10800;53.096;18.328;2023-06-14T17:00:45;17.70;99.90
21282;DHT22;10800;53.096;18.328;2023-06-14T17:05:58;17.50;99.90
21282;DHT22;10800;53.096;18.328;2023-06-14T17:11:03;17.40;99.90
21282;DHT22;10800;53.096;18.328;2023-06-14T17:16:09;17.20;99.90
21282;DHT22;10800;53.096;18.328;2023-06-14T17:21:16;17.10;99.90
21282;DHT22;10800;53.096;18.328;2023-06-14T17:26:22;16.90;99.90
21282;DHT22;10800;53.096;18.328;2023-06-14T17:31:27;16.80;99.90
21282;DHT22;10800;53.096;18.328;2023-06-14T17:36:33;16.80;99.90
21282;DHT22;10800;53.096;18.328;2023-06-14T17:41:39;16.90;99.90
21282;DHT22;10800;53.096;18.328;2023-06-14T17:46:46;16.70;99.90
21282;DHT22;10800;53.096;18.328;2023-06-14T17:51:53;16.80;99.90
21282;DHT22;10800;53.096;18.328;2023-06-14T17:56:59;16.80;99.90
21282;DHT22;10800;53.096;18.328;2023-06-14T18:02:05;16.70;99.90
21282;DHT22;10800;53.096;18.328;2023-06-14T18:07:11;16.70;99.90
21282;DHT22;10800;53.096;18.328;2023-06-14T18:12:16;16.30;99.90
21282;DHT22;10800;53.096;18.328;2023-06-14T18:17:22;16.20;99.90
21282;DHT22;10800;53.096;18.328;2023-06-14T18:22:27;16.10;99.90
21282;DHT22;10800;53.096;18.328;2023-06-14T18:27:33;16.10;99.90
21282;DHT22;10800;53.096;18.328;2023-06-14T18:32:38;16.20;99.90
21282;DHT22;10800;53.096;18.328;2023-06-14T18:37:46;16.30;99.90
21282;DHT22;10800;53.096;18.328;2023-06-14T18:42:52;16.30;99.90
21282;DHT22;10800;53.096;18.328;2023-06-14T18:47:57;16.30;99.90
21282;DHT22;10800;53.096;18.328;2023-06-14T18:53:04;16.20;99.90
21282;DHT22;10800;53.096;18.328;2023-06-14T18:58:17;16.20;99.90
21282;DHT22;10800;53.096;18.328;2023-06-14T19:03:24;16.20;99.90
21282;DHT22;10800;53.096;18.328;2023-06-14T19:08:34;16.20;99.90
21282;DHT22;10800;53.096;18.328;2023-06-14T19:13:39;16.20;99.90
21282;DHT22;10800;53.096;18.328;2023-06-14T19:18:45;16.20;99.90
21282;DHT22;10800;53.096;18.328;2023-06-14T19:23:50;16.10;99.90
21282;DHT22;10800;53.096;18.328;2023-06-14T19:28:57;16.10;99.90
21282;DHT22;10800;53.096;18.328;2023-06-14T19:34:03;16.00;99.90
21282;DHT22;10800;53.096;18.328;2023-06-14T19:39:08;16.00;99.90
21282;DHT22;10800;53.096;18.328;2023-06-14T19:44:14;16.00;99.90
21282;DHT22;10800;53.096;18.328;2023-06-14T19:49:23;15.90;99.90
21282;DHT22;10800;53.096;18.328;2023-06-14T19:54:29;15.90;99.90
21282;DHT22;10800;53.096;18.328;2023-06-14T19:59:35;15.90;99.90
21282;DHT22;10800;53.096;18.328;2023-06-14T20:04:41;15.70;99.90
21282;DHT22;10800;53.096;18.328;2023-06-14T20:09:46;15.70;99.90
21282;DHT22;10800;53.096;18.328;2023-06-14T20:14:52;15.60;99.90
21282;DHT22;10800;53.096;18.328;2023-06-14T20:19:57;15.60;99.90
21282;DHT22;10800;53.096;18.328;2023-06-14T20:25:06;15.50;99.90
21282;DHT22;10800;53.096;18.328;2023-06-14T20:30:11;15.50;99.90
21282;DHT22;10800;53.096;18.328;2023-06-14T20:35:17;15.40;99.90
21282;DHT22;10800;53.096;18.328;2023-06-14T20:40:24;15.30;99.90
21282;DHT22;10800;53.096;18.328;2023-06-14T20:45:30;15.20;99.90
21282;DHT22;10800;53.096;18.328;2023-06-14T20:50:37;15.20;99.90
21282;DHT22;10800;53.096;18.328;2023-06-14T20:55:43;15.00;99.90
21282;DHT22;10800;53.096;18.328;2023-06-14T21:00:49;15.00;99.90
21282;DHT22;10800;53.096;18.328;2023-06-14T21:05:55;14.90;99.90
21282;DHT22;10800;53.096;18.328;2023-06-14T21:11:02;15.00;99.90
21282;DHT22;10800;53.096;18.328;2023-06-14T21:16:08;14.90;99.90
21282;DHT22;10800;53.096;18.328;2023-06-14T21:21:13;14.90;99.90
21282;DHT22;10800;53.096;18.328;2023-06-14T21:26:19;14.90;99.90
21282;DHT22;10800;53.096;18.328;2023-06-14T21:31:26;14.90;99.90
21282;DHT22;10800;53.096;18.328;2023-06-14T21:36:32;14.90;99.90
21282;DHT22;10800;53.096;18.328;2023-06-14T21:41:39;14.90;99.90
21282;DHT22;10800;53.096;18.328;2023-06-14T21:46:45;14.90;99.90
21282;DHT22;10800;53.096;18.328;2023-06-14T21:51:50;14.90;99.90
21282;DHT22;10800;53.096;18.328;2023-06-14T21:56:56;14.80;99.90
21282;DHT22;10800;53.096;18.328;2023-06-14T22:02:02;14.80;99.90
21282;DHT22;10800;53.096;18.328;2023-06-14T22:07:07;14.80;99.90
21282;DHT22;10800;53.096;18.328;2023-06-14T22:12:14;14.80;99.90
21282;DHT22;10800;53.096;18.328;2023-06-14T22:17:21;14.80;99.90
21282;DHT22;10800;53.096;18.328;2023-06-14T22:22:27;14.80;99.90
21282;DHT22;10800;53.096;18.328;2023-06-14T22:27:33;14.80;99.90
21282;DHT22;10800;53.096;18.328;2023-06-14T22:32:43;14.80;99.90
21282;DHT22;10800;53.096;18.328;2023-06-14T22:37:47;14.80;99.90
21282;DHT22;10800;53.096;18.328;2023-06-14T22:42:53;14.80;99.90
21282;DHT22;10800;53.096;18.328;2023-06-14T22:48:00;14.70;99.90
21282;DHT22;10800;53.096;18.328;2023-06-14T22:53:06;14.70;99.90
21282;DHT22;10800;53.096;18.328;2023-06-14T22:58:13;14.70;99.90
21282;DHT22;10800;53.096;18.328;2023-06-14T23:03:19;14.70;99.90
21282;DHT22;10800;53.096;18.328;2023-06-14T23:08:25;14.70;99.90
21282;DHT22;10800;53.096;18.328;2023-06-14T23:13:31;14.70;99.90
21282;DHT22;10800;53.096;18.328;2023-06-14T23:18:37;14.70;99.90
21282;DHT22;10800;53.096;18.328;2023-06-14T23:23:46;14.70;99.90
21282;DHT22;10800;53.096;18.328;2023-06-14T23:28:54;14.70;99.90
21282;DHT22;10800;53.096;18.328;2023-06-14T23:34:01;14.70;99.90
21282;DHT22;10800;53.096;18.328;2023-06-14T23:39:14;14.60;99.90
21282;DHT22;10800;53.096;18.328;2023-06-14T23:44:21;14.60;99.90
21282;DHT22;10800;53.096;18.328;2023-06-14T23:49:29;14.70;99.90
21282;DHT22;10800;53.096;18.328;2023-06-14T23:54:34;14.70;99.90
21282;DHT22;10800;53.096;18.328;2023-06-14T23:59:40;14.70;99.90
